sensor_id;sensor_type;location;lat;lon;timestamp;temperature;humidity
37276;DHT22;23166;51.150;21.620;2022-08-20T00:00:59;22.10;1.00
37276;DHT22;23166;51.150;21.620;2022-08-20T00:03:27;22.00;1.00
37276;DHT22;23166;51.150;21.620;2022-08-20T00:08:38;21.90;1.00
37276;DHT22;23166;51.150;21.620;2022-08-20T00:11:05;21.80;1.00
37276;DHT22;23166;51.150;21.620;2022-08-20T00:13:35;21.80;1.00
37276;DHT22;23166;51.150;21.620;2022-08-20T00:16:00;21.70;5.90
37276;DHT22;23166;51.150;21.620;2022-08-20T00:18:27;21.70;10.30
37276;DHT22;23166;51.150;21.620;2022-08-20T00:20:53;21.60;13.20
37276;DHT22;23166;51.150;21.620;2022-08-20T00:23:21;21.60;12.40
37276;DHT22;23166;51.150;21.620;2022-08-20T00:25:47;21.60;8.90
37276;DHT22;23166;51.150;21.620;2022-08-20T00:28:14;21.50;10.30
37276;DHT22;23166;51.150;21.620;2022-08-20T00:30:41;21.50;18.30
37276;DHT22;23166;51.150;21.620;2022-08-20T00:33:09;21.40;22.20
37276;DHT22;23166;51.150;21.620;2022-08-20T00:35:36;21.40;21.60
37276;DHT22;23166;51.150;21.620;2022-08-20T00:38:04;21.40;23.00
37276;DHT22;23166;51.150;21.620;2022-08-20T00:40:33;21.30;28.70
37276;DHT22;23166;51.150;21.620;2022-08-20T00:43:00;21.30;25.80
37276;DHT22;23166;51.150;21.620;2022-08-20T00:45:28;21.20;28.80
37276;DHT22;23166;51.150;21.620;2022-08-20T00:47:54;21.10;39.10
37276;DHT22;23166;51.150;21.620;2022-08-20T00:50:23;21.10;40.40
37276;DHT22;23166;51.150;21.620;2022-08-20T00:52:49;21.00;47.80
37276;DHT22;23166;51.150;21.620;2022-08-20T00:55:17;21.00;49.40
37276;DHT22;23166;51.150;21.620;2022-08-20T00:57:49;20.90;52.10
37276;DHT22;23166;51.150;21.620;2022-08-20T01:00:17;20.90;49.20
37276;DHT22;23166;51.150;21.620;2022-08-20T01:02:40;20.80;45.90
37276;DHT22;23166;51.150;21.620;2022-08-20T01:05:07;20.70;47.40
37276;DHT22;23166;51.150;21.620;2022-08-20T01:07:34;20.70;50.70
37276;DHT22;23166;51.150;21.620;2022-08-20T01:10:02;20.60;52.80
37276;DHT22;23166;51.150;21.620;2022-08-20T01:12:28;20.60;65.30
37276;DHT22;23166;51.150;21.620;2022-08-20T01:14:56;20.50;58.80
37276;DHT22;23166;51.150;21.620;2022-08-20T01:17:23;20.50;62.00
37276;DHT22;23166;51.150;21.620;2022-08-20T01:22:23;20.40;61.90
37276;DHT22;23166;51.150;21.620;2022-08-20T01:25:12;20.40;66.00
37276;DHT22;23166;51.150;21.620;2022-08-20T01:27:32;20.30;69.70
37276;DHT22;23166;51.150;21.620;2022-08-20T01:29:59;20.30;70.40
37276;DHT22;23166;51.150;21.620;2022-08-20T01:32:26;20.30;70.60
37276;DHT22;23166;51.150;21.620;2022-08-20T01:34:52;20.30;70.50
37276;DHT22;23166;51.150;21.620;2022-08-20T01:37:18;20.30;66.90
37276;DHT22;23166;51.150;21.620;2022-08-20T01:39:44;20.30;68.10
37276;DHT22;23166;51.150;21.620;2022-08-20T01:44:42;20.20;70.50
37276;DHT22;23166;51.150;21.620;2022-08-20T01:49:39;20.20;73.40
37276;DHT22;23166;51.150;21.620;2022-08-20T01:52:07;20.20;74.20
37276;DHT22;23166;51.150;21.620;2022-08-20T01:54:33;20.20;71.20
37276;DHT22;23166;51.150;21.620;2022-08-20T01:57:05;20.20;74.20
37276;DHT22;23166;51.150;21.620;2022-08-20T01:59:31;20.20;72.40
37276;DHT22;23166;51.150;21.620;2022-08-20T02:01:57;20.20;73.50
37276;DHT22;23166;51.150;21.620;2022-08-20T02:04:24;20.20;71.80
37276;DHT22;23166;51.150;21.620;2022-08-20T02:06:53;20.20;71.80
37276;DHT22;23166;51.150;21.620;2022-08-20T02:09:19;20.20;71.50
37276;DHT22;23166;51.150;21.620;2022-08-20T02:11:45;20.20;71.30
37276;DHT22;23166;51.150;21.620;2022-08-20T02:14:12;20.20;70.70
37276;DHT22;23166;51.150;21.620;2022-08-20T02:16:39;20.20;70.20
37276;DHT22;23166;51.150;21.620;2022-08-20T02:19:13;20.20;70.00
37276;DHT22;23166;51.150;21.620;2022-08-20T02:21:40;20.10;72.90
37276;DHT22;23166;51.150;21.620;2022-08-20T02:24:05;20.10;71.80
37276;DHT22;23166;51.150;21.620;2022-08-20T02:26:31;20.10;71.80
37276;DHT22;23166;51.150;21.620;2022-08-20T02:28:57;20.00;75.10
37276;DHT22;23166;51.150;21.620;2022-08-20T02:31:24;20.00;76.20
37276;DHT22;23166;51.150;21.620;2022-08-20T02:33:50;20.00;76.90
37276;DHT22;23166;51.150;21.620;2022-08-20T02:36:17;19.90;77.10
37276;DHT22;23166;51.150;21.620;2022-08-20T02:38:44;19.90;82.40
37276;DHT22;23166;51.150;21.620;2022-08-20T02:41:11;19.90;86.30
37276;DHT22;23166;51.150;21.620;2022-08-20T02:43:37;19.80;85.30
37276;DHT22;23166;51.150;21.620;2022-08-20T02:46:04;19.70;88.10
37276;DHT22;23166;51.150;21.620;2022-08-20T02:48:31;19.60;91.10
37276;DHT22;23166;51.150;21.620;2022-08-20T02:50:59;19.50;91.50
37276;DHT22;23166;51.150;21.620;2022-08-20T02:53:27;19.30;92.60
37276;DHT22;23166;51.150;21.620;2022-08-20T02:55:54;19.20;94.00
37276;DHT22;23166;51.150;21.620;2022-08-20T02:58:21;19.20;95.10
37276;DHT22;23166;51.150;21.620;2022-08-20T03:00:48;19.20;96.10
37276;DHT22;23166;51.150;21.620;2022-08-20T03:03:15;19.10;96.40
37276;DHT22;23166;51.150;21.620;2022-08-20T03:05:43;19.00;97.10
37276;DHT22;23166;51.150;21.620;2022-08-20T03:08:10;19.00;96.70
37276;DHT22;23166;51.150;21.620;2022-08-20T03:10:37;19.00;95.60
37276;DHT22;23166;51.150;21.620;2022-08-20T03:13:06;19.00;95.00
37276;DHT22;23166;51.150;21.620;2022-08-20T03:15:35;19.00;95.40
37276;DHT22;23166;51.150;21.620;2022-08-20T03:18:01;19.00;96.30
37276;DHT22;23166;51.150;21.620;2022-08-20T03:20:27;19.00;95.60
37276;DHT22;23166;51.150;21.620;2022-08-20T03:22:54;19.00;96.20
37276;DHT22;23166;51.150;21.620;2022-08-20T03:25:20;19.00;95.80
37276;DHT22;23166;51.150;21.620;2022-08-20T03:27:47;19.00;95.40
37276;DHT22;23166;51.150;21.620;2022-08-20T03:30:14;19.10;95.30
37276;DHT22;23166;51.150;21.620;2022-08-20T03:32:41;19.10;96.30
37276;DHT22;23166;51.150;21.620;2022-08-20T03:35:08;19.10;95.10
37276;DHT22;23166;51.150;21.620;2022-08-20T03:37:35;19.10;95.10
37276;DHT22;23166;51.150;21.620;2022-08-20T03:40:03;19.20;94.70
37276;DHT22;23166;51.150;21.620;2022-08-20T03:42:30;19.20;94.30
37276;DHT22;23166;51.150;21.620;2022-08-20T03:44:56;19.20;94.00
37276;DHT22;23166;51.150;21.620;2022-08-20T03:47:23;19.30;94.20
37276;DHT22;23166;51.150;21.620;2022-08-20T03:49:49;19.30;93.70
37276;DHT22;23166;51.150;21.620;2022-08-20T03:52:15;19.30;93.30
37276;DHT22;23166;51.150;21.620;2022-08-20T03:54:42;19.40;92.70
37276;DHT22;23166;51.150;21.620;2022-08-20T03:57:14;19.40;93.10
37276;DHT22;23166;51.150;21.620;2022-08-20T03:59:38;19.50;93.00
37276;DHT22;23166;51.150;21.620;2022-08-20T04:02:05;19.50;92.60
37276;DHT22;23166;51.150;21.620;2022-08-20T04:04:33;19.60;91.90
37276;DHT22;23166;51.150;21.620;2022-08-20T04:06:59;19.70;89.90
37276;DHT22;23166;51.150;21.620;2022-08-20T04:09:25;19.70;90.30
37276;DHT22;23166;51.150;21.620;2022-08-20T04:11:51;19.80;89.60
37276;DHT22;23166;51.150;21.620;2022-08-20T04:14:19;19.90;88.50
37276;DHT22;23166;51.150;21.620;2022-08-20T04:16:45;19.90;87.50
37276;DHT22;23166;51.150;21.620;2022-08-20T04:19:12;20.00;81.40
37276;DHT22;23166;51.150;21.620;2022-08-20T04:21:38;20.10;82.40
37276;DHT22;23166;51.150;21.620;2022-08-20T04:24:04;20.10;83.10
37276;DHT22;23166;51.150;21.620;2022-08-20T04:26:30;20.10;82.50
37276;DHT22;23166;51.150;21.620;2022-08-20T04:28:56;20.20;81.80
37276;DHT22;23166;51.150;21.620;2022-08-20T04:31:23;20.30;80.70
37276;DHT22;23166;51.150;21.620;2022-08-20T04:33:49;20.30;75.30
37276;DHT22;23166;51.150;21.620;2022-08-20T04:36:15;20.30;70.40
37276;DHT22;23166;51.150;21.620;2022-08-20T04:38:41;20.40;68.80
37276;DHT22;23166;51.150;21.620;2022-08-20T04:41:07;20.50;72.70
37276;DHT22;23166;51.150;21.620;2022-08-20T04:43:34;20.60;67.70
37276;DHT22;23166;51.150;21.620;2022-08-20T04:46:02;20.70;67.90
37276;DHT22;23166;51.150;21.620;2022-08-20T04:48:31;20.70;66.20
37276;DHT22;23166;51.150;21.620;2022-08-20T04:50:57;20.80;64.80
37276;DHT22;23166;51.150;21.620;2022-08-20T04:53:24;20.80;63.60
37276;DHT22;23166;51.150;21.620;2022-08-20T04:55:51;21.00;56.70
37276;DHT22;23166;51.150;21.620;2022-08-20T04:58:20;21.10;49.30
37276;DHT22;23166;51.150;21.620;2022-08-20T05:00:46;21.20;53.70
37276;DHT22;23166;51.150;21.620;2022-08-20T05:03:13;21.30;50.00
37276;DHT22;23166;51.150;21.620;2022-08-20T05:05:40;21.40;44.50
37276;DHT22;23166;51.150;21.620;2022-08-20T05:08:06;21.40;40.10
37276;DHT22;23166;51.150;21.620;2022-08-20T05:10:32;21.50;35.10
37276;DHT22;23166;51.150;21.620;2022-08-20T05:12:59;21.50;29.80
37276;DHT22;23166;51.150;21.620;2022-08-20T05:15:25;21.50;30.80
37276;DHT22;23166;51.150;21.620;2022-08-20T05:17:55;21.50;31.10
37276;DHT22;23166;51.150;21.620;2022-08-20T05:20:22;21.40;33.90
37276;DHT22;23166;51.150;21.620;2022-08-20T05:22:48;21.40;36.00
37276;DHT22;23166;51.150;21.620;2022-08-20T05:25:14;21.50;35.70
37276;DHT22;23166;51.150;21.620;2022-08-20T05:27:40;21.50;35.00
37276;DHT22;23166;51.150;21.620;2022-08-20T05:30:08;21.60;32.60
37276;DHT22;23166;51.150;21.620;2022-08-20T05:32:35;21.70;32.40
37276;DHT22;23166;51.150;21.620;2022-08-20T05:35:02;21.70;29.40
37276;DHT22;23166;51.150;21.620;2022-08-20T05:37:28;21.80;28.30
37276;DHT22;23166;51.150;21.620;2022-08-20T05:39:56;21.80;25.50
37276;DHT22;23166;51.150;21.620;2022-08-20T05:42:22;21.90;21.50
37276;DHT22;23166;51.150;21.620;2022-08-20T05:44:48;21.90;11.20
37276;DHT22;23166;51.150;21.620;2022-08-20T05:47:14;22.00;19.10
37276;DHT22;23166;51.150;21.620;2022-08-20T05:49:42;22.00;18.40
37276;DHT22;23166;51.150;21.620;2022-08-20T05:52:10;22.10;14.40
37276;DHT22;23166;51.150;21.620;2022-08-20T05:54:36;22.20;11.10
37276;DHT22;23166;51.150;21.620;2022-08-20T05:57:03;22.30;9.70
37276;DHT22;23166;51.150;21.620;2022-08-20T05:59:29;22.30;10.90
37276;DHT22;23166;51.150;21.620;2022-08-20T06:01:55;22.40;1.00
37276;DHT22;23166;51.150;21.620;2022-08-20T06:04:21;22.50;1.00
37276;DHT22;23166;51.150;21.620;2022-08-20T06:07:06;22.70;1.00
37276;DHT22;23166;51.150;21.620;2022-08-20T06:09:32;22.80;1.00
37276;DHT22;23166;51.150;21.620;2022-08-20T06:12:01;22.90;1.00
37276;DHT22;23166;51.150;21.620;2022-08-20T06:14:27;23.10;1.00
37276;DHT22;23166;51.150;21.620;2022-08-20T06:16:53;23.20;1.00
37276;DHT22;23166;51.150;21.620;2022-08-20T06:19:20;23.30;1.00
37276;DHT22;23166;51.150;21.620;2022-08-20T06:21:46;23.50;1.00
37276;DHT22;23166;51.150;21.620;2022-08-20T06:24:12;23.60;1.00
37276;DHT22;23166;51.150;21.620;2022-08-20T06:26:38;23.70;1.00
37276;DHT22;23166;51.150;21.620;2022-08-20T06:29:05;23.90;1.00
37276;DHT22;23166;51.150;21.620;2022-08-20T06:31:31;24.00;1.00
37276;DHT22;23166;51.150;21.620;2022-08-20T06:33:59;24.10;1.00
37276;DHT22;23166;51.150;21.620;2022-08-20T06:36:25;24.20;1.00
37276;DHT22;23166;51.150;21.620;2022-08-20T06:38:52;24.30;99.90
37276;DHT22;23166;51.150;21.620;2022-08-20T06:41:19;24.50;99.90
37276;DHT22;23166;51.150;21.620;2022-08-20T06:43:45;24.60;99.90
37276;DHT22;23166;51.150;21.620;2022-08-20T06:46:11;24.70;99.90
37276;DHT22;23166;51.150;21.620;2022-08-20T06:48:38;24.90;99.90
37276;DHT22;23166;51.150;21.620;2022-08-20T06:51:04;25.00;1.00
37276;DHT22;23166;51.150;21.620;2022-08-20T06:53:31;25.20;13.20
37276;DHT22;23166;51.150;21.620;2022-08-20T06:55:57;25.30;17.20
37276;DHT22;23166;51.150;21.620;2022-08-20T06:58:24;25.40;99.90
37276;DHT22;23166;51.150;21.620;2022-08-20T07:00:50;25.60;1.00
37276;DHT22;23166;51.150;21.620;2022-08-20T07:03:16;25.70;99.90
37276;DHT22;23166;51.150;21.620;2022-08-20T07:05:43;25.80;1.00
37276;DHT22;23166;51.150;21.620;2022-08-20T07:08:10;25.90;99.90
37276;DHT22;23166;51.150;21.620;2022-08-20T07:10:36;26.00;1.00
37276;DHT22;23166;51.150;21.620;2022-08-20T07:13:03;26.10;99.90
37276;DHT22;23166;51.150;21.620;2022-08-20T07:15:29;26.20;99.90
37276;DHT22;23166;51.150;21.620;2022-08-20T07:17:56;26.20;1.00
37276;DHT22;23166;51.150;21.620;2022-08-20T07:20:25;26.30;99.90
37276;DHT22;23166;51.150;21.620;2022-08-20T07:22:51;26.40;1.00
37276;DHT22;23166;51.150;21.620;2022-08-20T07:25:19;26.50;1.00
37276;DHT22;23166;51.150;21.620;2022-08-20T07:27:45;26.60;99.90
37276;DHT22;23166;51.150;21.620;2022-08-20T07:30:19;26.70;99.90
37276;DHT22;23166;51.150;21.620;2022-08-20T07:32:58;26.80;99.90
37276;DHT22;23166;51.150;21.620;2022-08-20T07:35:24;26.90;99.90
37276;DHT22;23166;51.150;21.620;2022-08-20T07:37:52;27.00;1.00
37276;DHT22;23166;51.150;21.620;2022-08-20T07:40:25;27.10;99.90
37276;DHT22;23166;51.150;21.620;2022-08-20T07:42:53;27.20;1.00
37276;DHT22;23166;51.150;21.620;2022-08-20T07:45:19;27.30;1.00
37276;DHT22;23166;51.150;21.620;2022-08-20T07:47:45;27.40;99.90
37276;DHT22;23166;51.150;21.620;2022-08-20T07:50:13;27.50;24.80
37276;DHT22;23166;51.150;21.620;2022-08-20T07:52:39;27.60;36.50
37276;DHT22;23166;51.150;21.620;2022-08-20T07:55:07;27.70;1.00
37276;DHT22;23166;51.150;21.620;2022-08-20T07:57:35;27.80;99.90
37276;DHT22;23166;51.150;21.620;2022-08-20T08:00:01;27.90;99.90
37276;DHT22;23166;51.150;21.620;2022-08-20T08:02:28;28.00;1.00
37276;DHT22;23166;51.150;21.620;2022-08-20T08:04:54;28.10;1.00
37276;DHT22;23166;51.150;21.620;2022-08-20T08:07:20;28.20;1.00
37276;DHT22;23166;51.150;21.620;2022-08-20T08:09:47;28.30;1.00
37276;DHT22;23166;51.150;21.620;2022-08-20T08:12:14;28.40;1.00
37276;DHT22;23166;51.150;21.620;2022-08-20T08:14:40;28.50;99.90
37276;DHT22;23166;51.150;21.620;2022-08-20T08:17:08;28.60;99.90
37276;DHT22;23166;51.150;21.620;2022-08-20T08:19:36;28.60;99.90
37276;DHT22;23166;51.150;21.620;2022-08-20T08:22:04;28.70;99.90
37276;DHT22;23166;51.150;21.620;2022-08-20T08:24:31;28.80;99.90
37276;DHT22;23166;51.150;21.620;2022-08-20T08:26:57;28.90;99.90
37276;DHT22;23166;51.150;21.620;2022-08-20T08:29:24;28.90;99.90
37276;DHT22;23166;51.150;21.620;2022-08-20T08:31:50;29.00;23.70
37276;DHT22;23166;51.150;21.620;2022-08-20T08:34:16;29.00;99.90
37276;DHT22;23166;51.150;21.620;2022-08-20T08:36:43;29.10;99.90
37276;DHT22;23166;51.150;21.620;2022-08-20T08:39:09;29.10;90.00
37276;DHT22;23166;51.150;21.620;2022-08-20T08:41:36;29.10;1.00
37276;DHT22;23166;51.150;21.620;2022-08-20T08:44:04;29.20;1.00
37276;DHT22;23166;51.150;21.620;2022-08-20T08:46:31;29.10;1.00
37276;DHT22;23166;51.150;21.620;2022-08-20T08:48:59;29.10;1.00
37276;DHT22;23166;51.150;21.620;2022-08-20T08:51:32;29.10;1.00
37276;DHT22;23166;51.150;21.620;2022-08-20T08:53:57;29.20;1.00
37276;DHT22;23166;51.150;21.620;2022-08-20T08:56:26;29.20;1.00
37276;DHT22;23166;51.150;21.620;2022-08-20T08:58:52;29.30;1.00
37276;DHT22;23166;51.150;21.620;2022-08-20T09:01:21;29.40;1.00
37276;DHT22;23166;51.150;21.620;2022-08-20T09:03:48;29.40;1.00
37276;DHT22;23166;51.150;21.620;2022-08-20T09:06:21;29.50;1.00
37276;DHT22;23166;51.150;21.620;2022-08-20T09:08:51;29.50;1.00
37276;DHT22;23166;51.150;21.620;2022-08-20T09:11:19;29.50;1.00
37276;DHT22;23166;51.150;21.620;2022-08-20T09:13:46;29.50;1.00
37276;DHT22;23166;51.150;21.620;2022-08-20T09:16:12;29.50;1.00
37276;DHT22;23166;51.150;21.620;2022-08-20T09:18:38;29.50;1.00
37276;DHT22;23166;51.150;21.620;2022-08-20T09:21:05;29.60;1.00
37276;DHT22;23166;51.150;21.620;2022-08-20T09:23:31;29.70;99.90
37276;DHT22;23166;51.150;21.620;2022-08-20T09:25:57;29.70;99.90
37276;DHT22;23166;51.150;21.620;2022-08-20T09:28:24;29.80;99.90
37276;DHT22;23166;51.150;21.620;2022-08-20T09:30:50;29.90;99.90
37276;DHT22;23166;51.150;21.620;2022-08-20T09:33:16;30.00;99.90
37276;DHT22;23166;51.150;21.620;2022-08-20T09:35:42;30.10;99.90
37276;DHT22;23166;51.150;21.620;2022-08-20T09:38:11;30.10;99.90
37276;DHT22;23166;51.150;21.620;2022-08-20T09:40:37;30.20;99.90
37276;DHT22;23166;51.150;21.620;2022-08-20T09:43:04;30.20;99.90
37276;DHT22;23166;51.150;21.620;2022-08-20T09:45:30;30.30;99.90
37276;DHT22;23166;51.150;21.620;2022-08-20T09:47:56;30.30;99.90
37276;DHT22;23166;51.150;21.620;2022-08-20T09:50:24;30.40;99.90
37276;DHT22;23166;51.150;21.620;2022-08-20T09:52:50;30.40;99.90
37276;DHT22;23166;51.150;21.620;2022-08-20T09:55:26;30.50;99.90
37276;DHT22;23166;51.150;21.620;2022-08-20T09:57:51;30.60;99.90
37276;DHT22;23166;51.150;21.620;2022-08-20T10:00:18;30.70;99.90
37276;DHT22;23166;51.150;21.620;2022-08-20T10:02:44;30.70;99.90
37276;DHT22;23166;51.150;21.620;2022-08-20T10:05:10;30.80;99.90
37276;DHT22;23166;51.150;21.620;2022-08-20T10:07:37;30.90;99.90
37276;DHT22;23166;51.150;21.620;2022-08-20T10:10:04;30.90;99.90
37276;DHT22;23166;51.150;21.620;2022-08-20T10:12:30;30.90;99.90
37276;DHT22;23166;51.150;21.620;2022-08-20T10:14:56;31.00;99.90
37276;DHT22;23166;51.150;21.620;2022-08-20T10:17:23;31.00;99.90
37276;DHT22;23166;51.150;21.620;2022-08-20T10:19:49;30.90;99.90
37276;DHT22;23166;51.150;21.620;2022-08-20T10:22:15;30.90;99.90
37276;DHT22;23166;51.150;21.620;2022-08-20T10:24:41;30.90;99.90
37276;DHT22;23166;51.150;21.620;2022-08-20T10:27:07;30.90;99.90
37276;DHT22;23166;51.150;21.620;2022-08-20T10:29:33;30.90;99.90
37276;DHT22;23166;51.150;21.620;2022-08-20T10:32:07;31.00;99.90
37276;DHT22;23166;51.150;21.620;2022-08-20T10:34:34;31.10;99.90
37276;DHT22;23166;51.150;21.620;2022-08-20T10:37:00;31.10;99.90
37276;DHT22;23166;51.150;21.620;2022-08-20T10:39:26;31.10;99.40
37276;DHT22;23166;51.150;21.620;2022-08-20T10:41:52;31.10;96.20
37276;DHT22;23166;51.150;21.620;2022-08-20T10:44:18;31.10;98.40
37276;DHT22;23166;51.150;21.620;2022-08-20T10:46:44;31.20;96.20
37276;DHT22;23166;51.150;21.620;2022-08-20T10:49:10;31.20;98.40
37276;DHT22;23166;51.150;21.620;2022-08-20T10:51:37;31.30;94.60
37276;DHT22;23166;51.150;21.620;2022-08-20T10:54:03;31.20;92.10
37276;DHT22;23166;51.150;21.620;2022-08-20T10:56:29;31.20;94.60
37276;DHT22;23166;51.150;21.620;2022-08-20T10:58:55;31.30;94.70
37276;DHT22;23166;51.150;21.620;2022-08-20T11:01:21;31.30;93.50
37276;DHT22;23166;51.150;21.620;2022-08-20T11:03:48;31.30;93.20
37276;DHT22;23166;51.150;21.620;2022-08-20T11:06:14;31.30;91.50
37276;DHT22;23166;51.150;21.620;2022-08-20T11:08:40;31.40;91.40
37276;DHT22;23166;51.150;21.620;2022-08-20T11:11:06;31.50;89.80
37276;DHT22;23166;51.150;21.620;2022-08-20T11:13:33;31.50;91.70
37276;DHT22;23166;51.150;21.620;2022-08-20T11:15:59;31.60;81.10
37276;DHT22;23166;51.150;21.620;2022-08-20T11:18:25;31.70;85.30
37276;DHT22;23166;51.150;21.620;2022-08-20T11:20:51;31.70;84.20
37276;DHT22;23166;51.150;21.620;2022-08-20T11:23:18;31.70;76.90
37276;DHT22;23166;51.150;21.620;2022-08-20T11:25:44;31.70;73.60
37276;DHT22;23166;51.150;21.620;2022-08-20T11:28:10;31.70;68.30
37276;DHT22;23166;51.150;21.620;2022-08-20T11:30:37;31.60;73.60
37276;DHT22;23166;51.150;21.620;2022-08-20T11:33:04;31.50;72.10
37276;DHT22;23166;51.150;21.620;2022-08-20T11:35:31;31.40;68.10
37276;DHT22;23166;51.150;21.620;2022-08-20T11:37:57;31.40;65.80
37276;DHT22;23166;51.150;21.620;2022-08-20T11:40:24;31.40;65.20
37276;DHT22;23166;51.150;21.620;2022-08-20T11:42:51;31.50;72.10
37276;DHT22;23166;51.150;21.620;2022-08-20T11:45:17;31.60;74.10
37276;DHT22;23166;51.150;21.620;2022-08-20T11:47:43;31.60;67.10
37276;DHT22;23166;51.150;21.620;2022-08-20T11:50:15;31.70;57.20
37276;DHT22;23166;51.150;21.620;2022-08-20T11:52:37;31.70;51.50
37276;DHT22;23166;51.150;21.620;2022-08-20T11:55:04;31.70;53.60
37276;DHT22;23166;51.150;21.620;2022-08-20T11:57:31;31.70;51.30
37276;DHT22;23166;51.150;21.620;2022-08-20T11:59:58;31.80;52.80
37276;DHT22;23166;51.150;21.620;2022-08-20T12:02:25;31.90;46.80
37276;DHT22;23166;51.150;21.620;2022-08-20T12:04:52;32.00;37.60
37276;DHT22;23166;51.150;21.620;2022-08-20T12:07:20;32.00;32.70
37276;DHT22;23166;51.150;21.620;2022-08-20T12:09:46;32.00;38.50
37276;DHT22;23166;51.150;21.620;2022-08-20T12:12:13;32.10;38.40
37276;DHT22;23166;51.150;21.620;2022-08-20T12:14:39;32.10;30.20
37276;DHT22;23166;51.150;21.620;2022-08-20T12:17:10;32.20;26.80
37276;DHT22;23166;51.150;21.620;2022-08-20T12:19:37;32.20;26.20
37276;DHT22;23166;51.150;21.620;2022-08-20T12:22:03;32.20;23.90
37276;DHT22;23166;51.150;21.620;2022-08-20T12:24:29;32.20;22.80
37276;DHT22;23166;51.150;21.620;2022-08-20T12:27:06;32.30;21.60
37276;DHT22;23166;51.150;21.620;2022-08-20T12:29:24;32.30;18.20
37276;DHT22;23166;51.150;21.620;2022-08-20T12:31:52;32.30;18.00
37276;DHT22;23166;51.150;21.620;2022-08-20T12:34:18;32.30;18.00
37276;DHT22;23166;51.150;21.620;2022-08-20T12:36:44;32.30;15.70
37276;DHT22;23166;51.150;21.620;2022-08-20T12:39:10;32.30;14.10
37276;DHT22;23166;51.150;21.620;2022-08-20T12:41:36;32.20;11.50
37276;DHT22;23166;51.150;21.620;2022-08-20T12:44:02;32.20;8.90
37276;DHT22;23166;51.150;21.620;2022-08-20T12:46:30;32.20;9.60
37276;DHT22;23166;51.150;21.620;2022-08-20T12:48:56;32.30;9.60
37276;DHT22;23166;51.150;21.620;2022-08-20T12:51:23;32.30;10.00
37276;DHT22;23166;51.150;21.620;2022-08-20T12:53:49;32.30;8.20
37276;DHT22;23166;51.150;21.620;2022-08-20T12:56:15;32.30;7.70
37276;DHT22;23166;51.150;21.620;2022-08-20T12:58:41;32.30;5.50
37276;DHT22;23166;51.150;21.620;2022-08-20T13:01:07;32.20;4.20
37276;DHT22;23166;51.150;21.620;2022-08-20T13:03:33;32.10;3.20
37276;DHT22;23166;51.150;21.620;2022-08-20T13:06:00;32.10;4.80
37276;DHT22;23166;51.150;21.620;2022-08-20T13:08:26;32.00;5.70
37276;DHT22;23166;51.150;21.620;2022-08-20T13:10:54;32.00;15.20
37276;DHT22;23166;51.150;21.620;2022-08-20T13:13:20;32.10;6.70
37276;DHT22;23166;51.150;21.620;2022-08-20T13:15:47;32.00;5.30
37276;DHT22;23166;51.150;21.620;2022-08-20T13:18:13;32.00;4.70
37276;DHT22;23166;51.150;21.620;2022-08-20T13:20:39;31.90;1.40
37276;DHT22;23166;51.150;21.620;2022-08-20T13:23:05;31.80;2.30
37276;DHT22;23166;51.150;21.620;2022-08-20T13:25:32;31.80;1.00
37276;DHT22;23166;51.150;21.620;2022-08-20T13:27:58;31.70;1.10
37276;DHT22;23166;51.150;21.620;2022-08-20T13:30:25;31.70;1.00
37276;DHT22;23166;51.150;21.620;2022-08-20T13:32:52;31.70;1.00
37276;DHT22;23166;51.150;21.620;2022-08-20T13:35:21;31.90;1.00
37276;DHT22;23166;51.150;21.620;2022-08-20T13:37:48;31.90;2.10
37276;DHT22;23166;51.150;21.620;2022-08-20T13:40:14;32.00;4.10
37276;DHT22;23166;51.150;21.620;2022-08-20T13:42:41;32.00;2.40
37276;DHT22;23166;51.150;21.620;2022-08-20T13:45:07;32.10;1.40
37276;DHT22;23166;51.150;21.620;2022-08-20T13:47:35;32.00;1.00
37276;DHT22;23166;51.150;21.620;2022-08-20T13:50:09;32.00;1.00
37276;DHT22;23166;51.150;21.620;2022-08-20T13:52:35;32.00;1.00
37276;DHT22;23166;51.150;21.620;2022-08-20T13:55:02;32.00;1.00
37276;DHT22;23166;51.150;21.620;2022-08-20T13:57:29;32.00;1.00
37276;DHT22;23166;51.150;21.620;2022-08-20T13:59:55;32.00;1.00
37276;DHT22;23166;51.150;21.620;2022-08-20T14:02:22;32.00;1.00
37276;DHT22;23166;51.150;21.620;2022-08-20T14:04:48;32.00;1.00
37276;DHT22;23166;51.150;21.620;2022-08-20T14:07:17;32.00;1.00
37276;DHT22;23166;51.150;21.620;2022-08-20T14:09:44;32.10;1.00
37276;DHT22;23166;51.150;21.620;2022-08-20T14:12:11;32.00;1.00
37276;DHT22;23166;51.150;21.620;2022-08-20T14:14:38;32.00;1.00
37276;DHT22;23166;51.150;21.620;2022-08-20T14:17:39;32.10;1.00
37276;DHT22;23166;51.150;21.620;2022-08-20T14:19:38;32.10;1.00
37276;DHT22;23166;51.150;21.620;2022-08-20T14:22:04;32.10;1.00
37276;DHT22;23166;51.150;21.620;2022-08-20T14:24:30;32.10;1.00
37276;DHT22;23166;51.150;21.620;2022-08-20T14:26:57;32.10;1.00
37276;DHT22;23166;51.150;21.620;2022-08-20T14:29:23;32.10;1.00
37276;DHT22;23166;51.150;21.620;2022-08-20T14:31:49;32.10;1.00
37276;DHT22;23166;51.150;21.620;2022-08-20T14:34:15;32.00;1.00
37276;DHT22;23166;51.150;21.620;2022-08-20T14:36:41;32.10;1.00
37276;DHT22;23166;51.150;21.620;2022-08-20T14:39:07;32.10;1.00
37276;DHT22;23166;51.150;21.620;2022-08-20T14:41:33;32.10;1.00
37276;DHT22;23166;51.150;21.620;2022-08-20T14:44:00;32.10;1.00
37276;DHT22;23166;51.150;21.620;2022-08-20T14:46:26;32.00;1.00
37276;DHT22;23166;51.150;21.620;2022-08-20T14:48:52;32.00;1.00
37276;DHT22;23166;51.150;21.620;2022-08-20T14:51:18;31.90;1.00
37276;DHT22;23166;51.150;21.620;2022-08-20T14:53:44;31.90;1.00
37276;DHT22;23166;51.150;21.620;2022-08-20T14:56:10;31.80;1.00
37276;DHT22;23166;51.150;21.620;2022-08-20T14:58:37;31.80;1.00
37276;DHT22;23166;51.150;21.620;2022-08-20T15:01:04;31.70;1.00
37276;DHT22;23166;51.150;21.620;2022-08-20T15:03:30;31.70;1.00
37276;DHT22;23166;51.150;21.620;2022-08-20T15:05:57;31.60;1.00
37276;DHT22;23166;51.150;21.620;2022-08-20T15:08:23;31.60;1.00
37276;DHT22;23166;51.150;21.620;2022-08-20T15:10:49;31.60;1.00
37276;DHT22;23166;51.150;21.620;2022-08-20T15:13:15;31.60;1.00
37276;DHT22;23166;51.150;21.620;2022-08-20T15:15:42;31.60;1.00
37276;DHT22;23166;51.150;21.620;2022-08-20T15:18:08;31.60;1.00
37276;DHT22;23166;51.150;21.620;2022-08-20T15:20:36;31.60;1.00
37276;DHT22;23166;51.150;21.620;2022-08-20T15:23:03;31.60;1.00
37276;DHT22;23166;51.150;21.620;2022-08-20T15:25:31;31.50;1.00
37276;DHT22;23166;51.150;21.620;2022-08-20T15:27:58;31.40;1.00